sensor_id;sensor_type;location;lat;lon;timestamp;P1;durP1;ratioP1;P2;durP2;ratioP2
2766;SDS011;1391;46.742;11.636;2023-01-10T00:00:24;3.23;;;2.67;;
2766;SDS011;1391;46.742;11.636;2023-01-10T00:02:56;4.13;;;2.50;;
2766;SDS011;1391;46.742;11.636;2023-01-10T00:05:24;3.30;;;2.50;;
2766;SDS011;1391;46.742;11.636;2023-01-10T00:07:51;3.77;;;2.50;;
2766;SDS011;1391;46.742;11.636;2023-01-10T00:10:18;2.63;;;2.00;;
2766;SDS011;1391;46.742;11.636;2023-01-10T00:12:47;2.97;;;2.30;;
2766;SDS011;1391;46.742;11.636;2023-01-10T00:15:31;7.17;;;4.23;;
2766;SDS011;1391;46.742;11.636;2023-01-10T00:17:59;2.60;;;2.40;;
2766;SDS011;1391;46.742;11.636;2023-01-10T00:20:26;5.00;;;3.17;;
2766;SDS011;1391;46.742;11.636;2023-01-10T00:22:54;4.90;;;4.00;;
2766;SDS011;1391;46.742;11.636;2023-01-10T00:25:21;4.17;;;3.33;;
2766;SDS011;1391;46.742;11.636;2023-01-10T00:27:53;5.63;;;3.87;;
2766;SDS011;1391;46.742;11.636;2023-01-10T00:30:27;4.27;;;3.83;;
2766;SDS011;1391;46.742;11.636;2023-01-10T00:32:54;3.60;;;3.10;;
2766;SDS011;1391;46.742;11.636;2023-01-10T00:35:22;5.07;;;3.77;;
2766;SDS011;1391;46.742;11.636;2023-01-10T00:37:50;4.37;;;3.63;;
2766;SDS011;1391;46.742;11.636;2023-01-10T00:40:22;4.03;;;3.50;;
2766;SDS011;1391;46.742;11.636;2023-01-10T00:42:50;3.87;;;3.43;;
2766;SDS011;1391;46.742;11.636;2023-01-10T00:45:35;102.53;;;8.57;;
2766;SDS011;1391;46.742;11.636;2023-01-10T00:48:02;34.10;;;5.30;;
2766;SDS011;1391;46.742;11.636;2023-01-10T00:50:30;53.00;;;7.03;;
2766;SDS011;1391;46.742;11.636;2023-01-10T00:52:57;59.07;;;7.40;;
2766;SDS011;1391;46.742;11.636;2023-01-10T00:55:24;78.60;;;9.10;;
2766;SDS011;1391;46.742;11.636;2023-01-10T00:57:54;31.80;;;5.90;;
2766;SDS011;1391;46.742;11.636;2023-01-10T01:00:21;22.37;;;5.70;;
2766;SDS011;1391;46.742;11.636;2023-01-10T01:02:48;14.13;;;4.57;;
2766;SDS011;1391;46.742;11.636;2023-01-10T01:05:16;6.10;;;4.77;;
2766;SDS011;1391;46.742;11.636;2023-01-10T01:07:46;5.50;;;4.10;;
2766;SDS011;1391;46.742;11.636;2023-01-10T01:10:14;5.40;;;3.97;;
2766;SDS011;1391;46.742;11.636;2023-01-10T01:12:56;5.40;;;4.27;;
2766;SDS011;1391;46.742;11.636;2023-01-10T01:15:25;8.00;;;4.40;;
2766;SDS011;1391;46.742;11.636;2023-01-10T01:17:53;4.83;;;4.23;;
2766;SDS011;1391;46.742;11.636;2023-01-10T01:20:21;5.10;;;4.10;;
2766;SDS011;1391;46.742;11.636;2023-01-10T01:22:49;4.03;;;3.33;;
2766;SDS011;1391;46.742;11.636;2023-01-10T01:25:16;5.07;;;4.40;;
2766;SDS011;1391;46.742;11.636;2023-01-10T01:27:43;6.13;;;4.53;;
2766;SDS011;1391;46.742;11.636;2023-01-10T01:30:12;13.10;;;5.23;;
2766;SDS011;1391;46.742;11.636;2023-01-10T01:32:40;59.90;;;8.00;;
2766;SDS011;1391;46.742;11.636;2023-01-10T01:35:09;22.20;;;6.50;;
2766;SDS011;1391;46.742;11.636;2023-01-10T01:37:40;34.27;;;7.40;;
2766;SDS011;1391;46.742;11.636;2023-01-10T01:40:09;30.23;;;7.10;;
2766;SDS011;1391;46.742;11.636;2023-01-10T01:42:39;36.57;;;9.37;;
2766;SDS011;1391;46.742;11.636;2023-01-10T01:48:14;12.30;;;6.60;;
2766;SDS011;1391;46.742;11.636;2023-01-10T01:50:55;20.00;;;7.47;;
2766;SDS011;1391;46.742;11.636;2023-01-10T01:53:30;171.53;;;14.23;;
2766;SDS011;1391;46.742;11.636;2023-01-10T01:56:05;60.13;;;7.77;;
2766;SDS011;1391;46.742;11.636;2023-01-10T01:58:39;5.80;;;5.20;;
2766;SDS011;1391;46.742;11.636;2023-01-10T02:01:13;30.73;;;7.53;;
2766;SDS011;1391;46.742;11.636;2023-01-10T02:03:44;12.90;;;5.77;;
2766;SDS011;1391;46.742;11.636;2023-01-10T02:06:18;6.43;;;5.20;;
2766;SDS011;1391;46.742;11.636;2023-01-10T02:08:49;8.67;;;5.57;;
2766;SDS011;1391;46.742;11.636;2023-01-10T02:11:29;8.23;;;5.07;;
2766;SDS011;1391;46.742;11.636;2023-01-10T02:13:56;24.37;;;7.10;;
2766;SDS011;1391;46.742;11.636;2023-01-10T02:16:26;149.20;;;17.80;;
2766;SDS011;1391;46.742;11.636;2023-01-10T02:18:53;223.13;;;18.77;;
2766;SDS011;1391;46.742;11.636;2023-01-10T02:21:29;129.83;;;13.70;;
2766;SDS011;1391;46.742;11.636;2023-01-10T02:27:40;37.70;;;6.10;;
2766;SDS011;1391;46.742;11.636;2023-01-10T02:30:30;25.53;;;6.07;;
2766;SDS011;1391;46.742;11.636;2023-01-10T02:33:15;30.23;;;6.07;;
2766;SDS011;1391;46.742;11.636;2023-01-10T02:35:49;34.40;;;10.17;;
2766;SDS011;1391;46.742;11.636;2023-01-10T02:38:41;14.50;;;4.70;;
2766;SDS011;1391;46.742;11.636;2023-01-10T02:41:21;7.00;;;3.87;;
2766;SDS011;1391;46.742;11.636;2023-01-10T02:43:56;6.73;;;4.27;;
2766;SDS011;1391;46.742;11.636;2023-01-10T02:46:30;7.20;;;4.60;;
2766;SDS011;1391;46.742;11.636;2023-01-10T02:48:59;5.40;;;4.37;;
2766;SDS011;1391;46.742;11.636;2023-01-10T02:51:27;6.50;;;4.13;;
2766;SDS011;1391;46.742;11.636;2023-01-10T02:53:58;18.90;;;6.30;;
2766;SDS011;1391;46.742;11.636;2023-01-10T02:56:45;14.90;;;4.67;;
2766;SDS011;1391;46.742;11.636;2023-01-10T03:03:05;16.13;;;4.80;;
2766;SDS011;1391;46.742;11.636;2023-01-10T03:05:48;5.37;;;4.10;;
2766;SDS011;1391;46.742;11.636;2023-01-10T03:08:23;5.43;;;4.20;;
2766;SDS011;1391;46.742;11.636;2023-01-10T03:10:58;11.53;;;4.90;;
2766;SDS011;1391;46.742;11.636;2023-01-10T03:13:29;7.70;;;4.50;;
2766;SDS011;1391;46.742;11.636;2023-01-10T03:16:03;7.43;;;4.60;;
2766;SDS011;1391;46.742;11.636;2023-01-10T03:18:35;4.70;;;4.20;;
2766;SDS011;1391;46.742;11.636;2023-01-10T03:21:09;12.37;;;4.20;;
2766;SDS011;1391;46.742;11.636;2023-01-10T03:23:38;5.07;;;3.93;;
2766;SDS011;1391;46.742;11.636;2023-01-10T03:26:07;4.57;;;4.03;;
2766;SDS011;1391;46.742;11.636;2023-01-10T03:28:38;4.27;;;3.70;;
2766;SDS011;1391;46.742;11.636;2023-01-10T03:31:14;4.60;;;3.93;;
2766;SDS011;1391;46.742;11.636;2023-01-10T03:33:44;4.80;;;3.80;;
2766;SDS011;1391;46.742;11.636;2023-01-10T03:36:16;5.00;;;3.83;;
2766;SDS011;1391;46.742;11.636;2023-01-10T03:38:55;5.53;;;3.80;;
2766;SDS011;1391;46.742;11.636;2023-01-10T03:41:32;4.93;;;3.90;;
2766;SDS011;1391;46.742;11.636;2023-01-10T03:44:05;3.70;;;3.40;;
2766;SDS011;1391;46.742;11.636;2023-01-10T03:47:01;4.07;;;3.30;;
2766;SDS011;1391;46.742;11.636;2023-01-10T03:49:33;4.40;;;3.20;;
2766;SDS011;1391;46.742;11.636;2023-01-10T03:52:06;2.93;;;2.40;;
2766;SDS011;1391;46.742;11.636;2023-01-10T03:54:36;6.93;;;3.30;;
2766;SDS011;1391;46.742;11.636;2023-01-10T03:57:04;4.43;;;3.40;;
2766;SDS011;1391;46.742;11.636;2023-01-10T03:59:32;224.43;;;16.33;;
2766;SDS011;1391;46.742;11.636;2023-01-10T04:01:59;167.53;;;11.53;;
2766;SDS011;1391;46.742;11.636;2023-01-10T04:04:27;225.97;;;18.20;;
2766;SDS011;1391;46.742;11.636;2023-01-10T04:06:56;33.40;;;6.33;;
2766;SDS011;1391;46.742;11.636;2023-01-10T04:09:24;47.60;;;7.10;;
2766;SDS011;1391;46.742;11.636;2023-01-10T04:11:52;5.27;;;3.67;;
2766;SDS011;1391;46.742;11.636;2023-01-10T04:14:19;13.93;;;4.43;;
2766;SDS011;1391;46.742;11.636;2023-01-10T04:16:46;6.53;;;4.03;;
2766;SDS011;1391;46.742;11.636;2023-01-10T04:19:14;12.73;;;4.07;;
2766;SDS011;1391;46.742;11.636;2023-01-10T04:21:41;4.50;;;3.43;;
2766;SDS011;1391;46.742;11.636;2023-01-10T04:24:09;4.37;;;3.23;;
2766;SDS011;1391;46.742;11.636;2023-01-10T04:26:38;4.57;;;3.13;;
2766;SDS011;1391;46.742;11.636;2023-01-10T04:29:05;8.77;;;4.83;;
2766;SDS011;1391;46.742;11.636;2023-01-10T04:31:33;4.60;;;3.03;;
2766;SDS011;1391;46.742;11.636;2023-01-10T04:34:00;5.37;;;3.77;;
2766;SDS011;1391;46.742;11.636;2023-01-10T04:36:27;3.57;;;2.87;;
2766;SDS011;1391;46.742;11.636;2023-01-10T04:38:55;3.03;;;2.60;;
2766;SDS011;1391;46.742;11.636;2023-01-10T04:41:22;3.30;;;2.93;;
2766;SDS011;1391;46.742;11.636;2023-01-10T04:43:51;3.10;;;2.73;;
2766;SDS011;1391;46.742;11.636;2023-01-10T04:46:18;3.67;;;3.27;;
2766;SDS011;1391;46.742;11.636;2023-01-10T04:48:45;5.37;;;3.63;;
2766;SDS011;1391;46.742;11.636;2023-01-10T04:51:12;3.27;;;2.83;;
2766;SDS011;1391;46.742;11.636;2023-01-10T04:53:40;3.63;;;3.20;;
2766;SDS011;1391;46.742;11.636;2023-01-10T04:56:08;4.40;;;3.37;;
2766;SDS011;1391;46.742;11.636;2023-01-10T04:58:41;6.23;;;4.23;;
2766;SDS011;1391;46.742;11.636;2023-01-10T05:01:10;3.80;;;3.17;;
2766;SDS011;1391;46.742;11.636;2023-01-10T05:03:40;3.53;;;2.73;;
2766;SDS011;1391;46.742;11.636;2023-01-10T05:06:07;4.93;;;3.63;;
2766;SDS011;1391;46.742;11.636;2023-01-10T05:08:37;3.87;;;2.67;;
2766;SDS011;1391;46.742;11.636;2023-01-10T05:11:04;3.10;;;2.80;;
2766;SDS011;1391;46.742;11.636;2023-01-10T05:13:32;4.97;;;3.53;;
2766;SDS011;1391;46.742;11.636;2023-01-10T05:15:59;25.13;;;5.47;;
2766;SDS011;1391;46.742;11.636;2023-01-10T05:18:28;5.90;;;4.03;;
2766;SDS011;1391;46.742;11.636;2023-01-10T05:20:58;6.10;;;3.97;;
2766;SDS011;1391;46.742;11.636;2023-01-10T05:23:26;5.83;;;4.40;;
2766;SDS011;1391;46.742;11.636;2023-01-10T05:25:54;5.50;;;3.97;;
2766;SDS011;1391;46.742;11.636;2023-01-10T05:28:21;4.80;;;3.80;;
2766;SDS011;1391;46.742;11.636;2023-01-10T05:30:49;5.40;;;3.93;;
2766;SDS011;1391;46.742;11.636;2023-01-10T05:33:16;4.27;;;3.63;;
2766;SDS011;1391;46.742;11.636;2023-01-10T05:35:45;4.67;;;3.70;;
2766;SDS011;1391;46.742;11.636;2023-01-10T05:38:12;9.87;;;7.40;;
2766;SDS011;1391;46.742;11.636;2023-01-10T05:40:39;6.43;;;5.10;;
2766;SDS011;1391;46.742;11.636;2023-01-10T05:43:07;4.10;;;3.70;;
2766;SDS011;1391;46.742;11.636;2023-01-10T05:45:36;5.47;;;4.03;;
2766;SDS011;1391;46.742;11.636;2023-01-10T05:48:03;5.97;;;4.40;;
2766;SDS011;1391;46.742;11.636;2023-01-10T05:50:31;6.03;;;4.53;;
2766;SDS011;1391;46.742;11.636;2023-01-10T05:53:00;5.40;;;4.00;;
2766;SDS011;1391;46.742;11.636;2023-01-10T05:55:30;4.83;;;3.60;;
2766;SDS011;1391;46.742;11.636;2023-01-10T05:57:57;4.33;;;3.90;;
2766;SDS011;1391;46.742;11.636;2023-01-10T06:00:24;5.07;;;4.07;;
2766;SDS011;1391;46.742;11.636;2023-01-10T06:02:53;12.43;;;8.63;;
2766;SDS011;1391;46.742;11.636;2023-01-10T06:05:20;6.70;;;4.80;;
2766;SDS011;1391;46.742;11.636;2023-01-10T06:07:48;11.77;;;7.53;;
2766;SDS011;1391;46.742;11.636;2023-01-10T06:10:17;7.77;;;5.30;;
2766;SDS011;1391;46.742;11.636;2023-01-10T06:12:45;9.00;;;7.00;;
2766;SDS011;1391;46.742;11.636;2023-01-10T06:15:14;8.80;;;6.63;;
2766;SDS011;1391;46.742;11.636;2023-01-10T06:17:41;6.57;;;5.60;;
2766;SDS011;1391;46.742;11.636;2023-01-10T06:20:10;9.87;;;5.97;;
2766;SDS011;1391;46.742;11.636;2023-01-10T06:22:38;9.83;;;5.50;;
2766;SDS011;1391;46.742;11.636;2023-01-10T06:25:07;8.20;;;5.00;;
2766;SDS011;1391;46.742;11.636;2023-01-10T06:27:38;7.27;;;4.27;;
2766;SDS011;1391;46.742;11.636;2023-01-10T06:30:06;8.93;;;4.70;;
2766;SDS011;1391;46.742;11.636;2023-01-10T06:32:36;7.83;;;4.83;;
2766;SDS011;1391;46.742;11.636;2023-01-10T06:35:04;7.40;;;5.57;;
2766;SDS011;1391;46.742;11.636;2023-01-10T06:37:33;6.30;;;4.33;;
2766;SDS011;1391;46.742;11.636;2023-01-10T06:40:00;6.47;;;3.97;;
2766;SDS011;1391;46.742;11.636;2023-01-10T06:42:29;4.87;;;3.87;;
2766;SDS011;1391;46.742;11.636;2023-01-10T06:44:57;4.50;;;3.50;;
2766;SDS011;1391;46.742;11.636;2023-01-10T06:47:25;8.20;;;4.63;;
2766;SDS011;1391;46.742;11.636;2023-01-10T06:49:53;8.83;;;5.43;;
2766;SDS011;1391;46.742;11.636;2023-01-10T06:52:20;8.67;;;5.50;;
2766;SDS011;1391;46.742;11.636;2023-01-10T06:54:47;11.53;;;6.50;;
2766;SDS011;1391;46.742;11.636;2023-01-10T06:57:17;8.53;;;5.60;;
2766;SDS011;1391;46.742;11.636;2023-01-10T06:59:44;9.23;;;5.60;;
2766;SDS011;1391;46.742;11.636;2023-01-10T07:02:13;10.33;;;5.50;;
2766;SDS011;1391;46.742;11.636;2023-01-10T07:04:41;7.30;;;5.13;;
2766;SDS011;1391;46.742;11.636;2023-01-10T07:07:08;7.30;;;5.37;;
2766;SDS011;1391;46.742;11.636;2023-01-10T07:09:35;5.93;;;4.37;;
2766;SDS011;1391;46.742;11.636;2023-01-10T07:12:03;5.37;;;3.43;;
2766;SDS011;1391;46.742;11.636;2023-01-10T07:14:30;7.17;;;4.40;;
2766;SDS011;1391;46.742;11.636;2023-01-10T07:17:00;8.07;;;5.33;;
2766;SDS011;1391;46.742;11.636;2023-01-10T07:19:30;7.80;;;5.13;;
2766;SDS011;1391;46.742;11.636;2023-01-10T07:21:57;10.47;;;4.87;;
2766;SDS011;1391;46.742;11.636;2023-01-10T07:24:25;6.87;;;4.60;;
2766;SDS011;1391;46.742;11.636;2023-01-10T07:26:53;5.93;;;3.93;;
2766;SDS011;1391;46.742;11.636;2023-01-10T07:29:21;6.00;;;3.80;;
2766;SDS011;1391;46.742;11.636;2023-01-10T07:31:49;9.37;;;4.13;;
2766;SDS011;1391;46.742;11.636;2023-01-10T07:34:17;4.70;;;3.23;;
2766;SDS011;1391;46.742;11.636;2023-01-10T07:36:45;5.43;;;3.67;;
2766;SDS011;1391;46.742;11.636;2023-01-10T07:39:13;3.77;;;2.57;;
2766;SDS011;1391;46.742;11.636;2023-01-10T07:41:40;5.23;;;3.23;;
2766;SDS011;1391;46.742;11.636;2023-01-10T07:44:07;14.17;;;6.77;;
2766;SDS011;1391;46.742;11.636;2023-01-10T07:46:35;8.23;;;4.87;;
2766;SDS011;1391;46.742;11.636;2023-01-10T07:49:04;10.80;;;6.37;;
2766;SDS011;1391;46.742;11.636;2023-01-10T07:51:31;7.60;;;4.93;;
2766;SDS011;1391;46.742;11.636;2023-01-10T07:54:00;9.77;;;5.80;;
2766;SDS011;1391;46.742;11.636;2023-01-10T07:56:27;16.30;;;9.20;;
2766;SDS011;1391;46.742;11.636;2023-01-10T07:58:54;14.53;;;9.97;;
2766;SDS011;1391;46.742;11.636;2023-01-10T08:01:22;10.70;;;6.60;;
2766;SDS011;1391;46.742;11.636;2023-01-10T08:03:50;11.63;;;6.77;;
2766;SDS011;1391;46.742;11.636;2023-01-10T08:06:17;13.70;;;7.63;;
2766;SDS011;1391;46.742;11.636;2023-01-10T08:08:44;15.13;;;9.23;;
2766;SDS011;1391;46.742;11.636;2023-01-10T08:11:13;12.00;;;7.67;;
2766;SDS011;1391;46.742;11.636;2023-01-10T08:13:42;10.33;;;7.23;;
2766;SDS011;1391;46.742;11.636;2023-01-10T08:16:09;15.57;;;7.60;;
2766;SDS011;1391;46.742;11.636;2023-01-10T08:18:36;11.97;;;7.00;;
2766;SDS011;1391;46.742;11.636;2023-01-10T08:21:06;11.87;;;7.20;;
2766;SDS011;1391;46.742;11.636;2023-01-10T08:23:34;12.57;;;6.53;;
2766;SDS011;1391;46.742;11.636;2023-01-10T08:26:01;9.43;;;6.27;;
2766;SDS011;1391;46.742;11.636;2023-01-10T08:28:31;8.50;;;5.70;;
2766;SDS011;1391;46.742;11.636;2023-01-10T08:31:03;8.97;;;5.77;;
2766;SDS011;1391;46.742;11.636;2023-01-10T08:33:32;13.80;;;6.33;;
2766;SDS011;1391;46.742;11.636;2023-01-10T08:35:59;10.03;;;6.00;;
2766;SDS011;1391;46.742;11.636;2023-01-10T08:38:26;9.77;;;7.17;;
2766;SDS011;1391;46.742;11.636;2023-01-10T08:40:54;10.40;;;7.07;;
2766;SDS011;1391;46.742;11.636;2023-01-10T08:43:22;11.00;;;6.50;;
2766;SDS011;1391;46.742;11.636;2023-01-10T08:45:51;11.43;;;6.20;;
2766;SDS011;1391;46.742;11.636;2023-01-10T08:48:18;10.57;;;6.13;;
2766;SDS011;1391;46.742;11.636;2023-01-10T08:50:46;9.40;;;5.90;;
2766;SDS011;1391;46.742;11.636;2023-01-10T08:53:13;8.17;;;5.87;;
2766;SDS011;1391;46.742;11.636;2023-01-10T08:55:41;11.80;;;6.03;;
2766;SDS011;1391;46.742;11.636;2023-01-10T08:58:08;14.47;;;6.93;;
2766;SDS011;1391;46.742;11.636;2023-01-10T09:00:36;15.80;;;6.63;;
2766;SDS011;1391;46.742;11.636;2023-01-10T09:03:05;16.00;;;7.73;;
2766;SDS011;1391;46.742;11.636;2023-01-10T09:05:33;13.70;;;8.27;;
2766;SDS011;1391;46.742;11.636;2023-01-10T09:08:01;10.80;;;6.80;;
2766;SDS011;1391;46.742;11.636;2023-01-10T09:10:29;11.30;;;7.30;;
2766;SDS011;1391;46.742;11.636;2023-01-10T09:12:57;10.90;;;7.30;;
2766;SDS011;1391;46.742;11.636;2023-01-10T09:15:26;10.30;;;6.17;;
2766;SDS011;1391;46.742;11.636;2023-01-10T09:17:56;10.00;;;6.67;;
2766;SDS011;1391;46.742;11.636;2023-01-10T09:20:28;14.47;;;7.30;;
2766;SDS011;1391;46.742;11.636;2023-01-10T09:22:56;6.40;;;4.20;;
2766;SDS011;1391;46.742;11.636;2023-01-10T09:25:25;6.03;;;4.20;;
2766;SDS011;1391;46.742;11.636;2023-01-10T09:27:55;7.90;;;4.47;;
2766;SDS011;1391;46.742;11.636;2023-01-10T09:30:24;11.93;;;6.17;;
2766;SDS011;1391;46.742;11.636;2023-01-10T09:32:52;5.57;;;3.93;;
2766;SDS011;1391;46.742;11.636;2023-01-10T09:35:20;8.17;;;4.37;;
2766;SDS011;1391;46.742;11.636;2023-01-10T09:37:52;7.17;;;4.43;;
2766;SDS011;1391;46.742;11.636;2023-01-10T09:40:23;7.33;;;4.10;;
2766;SDS011;1391;46.742;11.636;2023-01-10T09:43:09;9.90;;;5.67;;
2766;SDS011;1391;46.742;11.636;2023-01-10T09:45:46;11.13;;;7.10;;
2766;SDS011;1391;46.742;11.636;2023-01-10T09:48:23;12.77;;;7.07;;
2766;SDS011;1391;46.742;11.636;2023-01-10T09:51:02;10.23;;;6.37;;
2766;SDS011;1391;46.742;11.636;2023-01-10T09:53:43;9.07;;;5.70;;
2766;SDS011;1391;46.742;11.636;2023-01-10T09:56:12;8.60;;;4.30;;
2766;SDS011;1391;46.742;11.636;2023-01-10T09:58:41;7.50;;;4.20;;
2766;SDS011;1391;46.742;11.636;2023-01-10T10:01:11;9.60;;;4.37;;
2766;SDS011;1391;46.742;11.636;2023-01-10T10:03:42;7.13;;;5.00;;
2766;SDS011;1391;46.742;11.636;2023-01-10T10:06:16;7.03;;;4.37;;
2766;SDS011;1391;46.742;11.636;2023-01-10T10:08:45;6.83;;;4.30;;
2766;SDS011;1391;46.742;11.636;2023-01-10T10:11:23;0.63;;;0.50;;
2766;SDS011;1391;46.742;11.636;2023-01-10T10:14:05;0.20;;;0.20;;
2766;SDS011;1391;46.742;11.636;2023-01-10T10:16:48;0.17;;;0.17;;
2766;SDS011;1391;46.742;11.636;2023-01-10T10:19:44;4.37;;;0.30;;
2766;SDS011;1391;46.742;11.636;2023-01-10T10:22:31;0.10;;;0.10;;
2766;SDS011;1391;46.742;11.636;2023-01-10T10:25:15;1.20;;;0.10;;
2766;SDS011;1391;46.742;11.636;2023-01-10T10:28:01;0.10;;;0.10;;
2766;SDS011;1391;46.742;11.636;2023-01-10T10:30:48;0.30;;;0.07;;
2766;SDS011;1391;46.742;11.636;2023-01-10T10:33:25;0.20;;;0.17;;
2766;SDS011;1391;46.742;11.636;2023-01-10T10:36:04;0.10;;;0.10;;
2766;SDS011;1391;46.742;11.636;2023-01-10T10:38:40;1.07;;;0.17;;
2766;SDS011;1391;46.742;11.636;2023-01-10T10:41:14;0.30;;;0.10;;
2766;SDS011;1391;46.742;11.636;2023-01-10T10:43:50;0.13;;;0.07;;
2766;SDS011;1391;46.742;11.636;2023-01-10T10:46:19;0.10;;;0.10;;
2766;SDS011;1391;46.742;11.636;2023-01-10T10:48:47;0.93;;;0.10;;
2766;SDS011;1391;46.742;11.636;2023-01-10T10:51:22;0.00;;;0.00;;
2766;SDS011;1391;46.742;11.636;2023-01-10T10:53:54;0.10;;;0.10;;
2766;SDS011;1391;46.742;11.636;2023-01-10T10:56:24;0.20;;;0.20;;
2766;SDS011;1391;46.742;11.636;2023-01-10T10:58:53;0.10;;;0.10;;
2766;SDS011;1391;46.742;11.636;2023-01-10T11:01:23;0.60;;;0.30;;
2766;SDS011;1391;46.742;11.636;2023-01-10T11:03:51;0.20;;;0.10;;
2766;SDS011;1391;46.742;11.636;2023-01-10T11:06:22;0.00;;;0.00;;
2766;SDS011;1391;46.742;11.636;2023-01-10T11:08:55;0.00;;;0.00;;
2766;SDS011;1391;46.742;11.636;2023-01-10T11:11:29;0.00;;;0.00;;
2766;SDS011;1391;46.742;11.636;2023-01-10T11:14:00;0.10;;;0.10;;
2766;SDS011;1391;46.742;11.636;2023-01-10T11:16:30;0.70;;;0.10;;
2766;SDS011;1391;46.742;11.636;2023-01-10T11:19:13;0.30;;;0.10;;
2766;SDS011;1391;46.742;11.636;2023-01-10T11:21:45;0.10;;;0.10;;
2766;SDS011;1391;46.742;11.636;2023-01-10T11:24:20;0.10;;;0.10;;
2766;SDS011;1391;46.742;11.636;2023-01-10T11:26:54;0.10;;;0.10;;
2766;SDS011;1391;46.742;11.636;2023-01-10T11:29:23;0.03;;;0.03;;
2766;SDS011;1391;46.742;11.636;2023-01-10T11:31:55;0.10;;;0.10;;
2766;SDS011;1391;46.742;11.636;2023-01-10T11:34:23;0.10;;;0.10;;
2766;SDS011;1391;46.742;11.636;2023-01-10T11:36:56;0.00;;;0.00;;
2766;SDS011;1391;46.742;11.636;2023-01-10T11:39:26;0.10;;;0.10;;
2766;SDS011;1391;46.742;11.636;2023-01-10T11:41:56;0.60;;;0.00;;
2766;SDS011;1391;46.742;11.636;2023-01-10T11:44:53;0.10;;;0.10;;
2766;SDS011;1391;46.742;11.636;2023-01-10T11:47:21;0.10;;;0.10;;
2766;SDS011;1391;46.742;11.636;2023-01-10T11:49:48;0.00;;;0.00;;
2766;SDS011;1391;46.742;11.636;2023-01-10T11:52:18;1.37;;;0.20;;
2766;SDS011;1391;46.742;11.636;2023-01-10T11:54:50;0.00;;;0.00;;
2766;SDS011;1391;46.742;11.636;2023-01-10T11:57:20;0.10;;;0.00;;
2766;SDS011;1391;46.742;11.636;2023-01-10T11:59:51;0.10;;;0.10;;
2766;SDS011;1391;46.742;11.636;2023-01-10T12:02:22;0.10;;;0.10;;
2766;SDS011;1391;46.742;11.636;2023-01-10T12:04:51;0.00;;;0.00;;
2766;SDS011;1391;46.742;11.636;2023-01-10T12:07:21;0.10;;;0.10;;
2766;SDS011;1391;46.742;11.636;2023-01-10T12:09:53;1.23;;;0.20;;
2766;SDS011;1391;46.742;11.636;2023-01-10T12:12:26;0.00;;;0.00;;
2766;SDS011;1391;46.742;11.636;2023-01-10T12:14:55;0.53;;;0.10;;
2766;SDS011;1391;46.742;11.636;2023-01-10T12:17:25;0.00;;;0.00;;
2766;SDS011;1391;46.742;11.636;2023-01-10T12:19:55;0.00;;;0.00;;
2766;SDS011;1391;46.742;11.636;2023-01-10T12:22:27;0.10;;;0.10;;
2766;SDS011;1391;46.742;11.636;2023-01-10T12:24:59;0.10;;;0.10;;
2766;SDS011;1391;46.742;11.636;2023-01-10T12:27:33;0.60;;;0.10;;
2766;SDS011;1391;46.742;11.636;2023-01-10T12:30:02;2.60;;;0.20;;
2766;SDS011;1391;46.742;11.636;2023-01-10T12:32:37;0.00;;;0.00;;
2766;SDS011;1391;46.742;11.636;2023-01-10T12:35:12;0.00;;;0.00;;
2766;SDS011;1391;46.742;11.636;2023-01-10T12:37:45;0.00;;;0.00;;
2766;SDS011;1391;46.742;11.636;2023-01-10T12:40:20;0.07;;;0.07;;
2766;SDS011;1391;46.742;11.636;2023-01-10T12:43:16;0.03;;;0.03;;
2766;SDS011;1391;46.742;11.636;2023-01-10T12:46:05;0.00;;;0.00;;
2766;SDS011;1391;46.742;11.636;2023-01-10T12:48:42;0.00;;;0.00;;
2766;SDS011;1391;46.742;11.636;2023-01-10T12:51:16;0.10;;;0.10;;
2766;SDS011;1391;46.742;11.636;2023-01-10T12:53:49;0.03;;;0.03;;
2766;SDS011;1391;46.742;11.636;2023-01-10T12:56:20;0.00;;;0.00;;
2766;SDS011;1391;46.742;11.636;2023-01-10T12:58:50;0.10;;;0.10;;
2766;SDS011;1391;46.742;11.636;2023-01-10T13:01:21;0.00;;;0.00;;
2766;SDS011;1391;46.742;11.636;2023-01-10T13:03:57;0.20;;;0.10;;
2766;SDS011;1391;46.742;11.636;2023-01-10T13:06:31;0.10;;;0.10;;
2766;SDS011;1391;46.742;11.636;2023-01-10T13:09:02;0.10;;;0.10;;
2766;SDS011;1391;46.742;11.636;2023-01-10T13:11:36;0.17;;;0.17;;
2766;SDS011;1391;46.742;11.636;2023-01-10T13:14:13;0.20;;;0.20;;
2766;SDS011;1391;46.742;11.636;2023-01-10T13:16:47;0.00;;;0.00;;
2766;SDS011;1391;46.742;11.636;2023-01-10T13:19:23;0.10;;;0.10;;
2766;SDS011;1391;46.742;11.636;2023-01-10T13:24:55;0.10;;;0.10;;
2766;SDS011;1391;46.742;11.636;2023-01-10T13:27:27;0.27;;;0.20;;
2766;SDS011;1391;46.742;11.636;2023-01-10T13:29:58;0.10;;;0.10;;
2766;SDS011;1391;46.742;11.636;2023-01-10T13:32:26;0.30;;;0.10;;
2766;SDS011;1391;46.742;11.636;2023-01-10T13:35:07;0.20;;;0.10;;
2766;SDS011;1391;46.742;11.636;2023-01-10T13:37:39;0.10;;;0.10;;
2766;SDS011;1391;46.742;11.636;2023-01-10T13:40:16;0.20;;;0.10;;
2766;SDS011;1391;46.742;11.636;2023-01-10T13:58:01;0.00;;;0.00;;
2766;SDS011;1391;46.742;11.636;2023-01-10T14:00:40;0.50;;;0.33;;
2766;SDS011;1391;46.742;11.636;2023-01-10T14:03:46;0.13;;;0.13;;
2766;SDS011;1391;46.742;11.636;2023-01-10T14:06:18;0.10;;;0.10;;
2766;SDS011;1391;46.742;11.636;2023-01-10T14:12:01;0.13;;;0.10;;
2766;SDS011;1391;46.742;11.636;2023-01-10T14:14:31;0.10;;;0.10;;
2766;SDS011;1391;46.742;11.636;2023-01-10T14:17:12;0.20;;;0.20;;
2766;SDS011;1391;46.742;11.636;2023-01-10T14:19:48;0.10;;;0.10;;
2766;SDS011;1391;46.742;11.636;2023-01-10T14:22:55;0.20;;;0.20;;
2766;SDS011;1391;46.742;11.636;2023-01-10T14:25:32;0.73;;;0.40;;
2766;SDS011;1391;46.742;11.636;2023-01-10T14:28:02;0.10;;;0.10;;
2766;SDS011;1391;46.742;11.636;2023-01-10T14:30:32;0.63;;;0.40;;
2766;SDS011;1391;46.742;11.636;2023-01-10T14:33:02;0.30;;;0.30;;
2766;SDS011;1391;46.742;11.636;2023-01-10T14:35:42;0.20;;;0.20;;
2766;SDS011;1391;46.742;11.636;2023-01-10T14:38:15;1.33;;;0.87;;
2766;SDS011;1391;46.742;11.636;2023-01-10T14:40:49;1.20;;;0.70;;
2766;SDS011;1391;46.742;11.636;2023-01-10T14:43:23;0.67;;;0.33;;
2766;SDS011;1391;46.742;11.636;2023-01-10T14:45:56;0.93;;;0.20;;
2766;SDS011;1391;46.742;11.636;2023-01-10T14:48:29;0.97;;;0.47;;
2766;SDS011;1391;46.742;11.636;2023-01-10T14:51:12;1.00;;;0.20;;
2766;SDS011;1391;46.742;11.636;2023-01-10T14:53:45;0.50;;;0.40;;
2766;SDS011;1391;46.742;11.636;2023-01-10T14:56:17;0.53;;;0.40;;
2766;SDS011;1391;46.742;11.636;2023-01-10T14:58:47;0.30;;;0.30;;
2766;SDS011;1391;46.742;11.636;2023-01-10T15:01:15;0.50;;;0.47;;
2766;SDS011;1391;46.742;11.636;2023-01-10T15:03:50;1.37;;;0.63;;
2766;SDS011;1391;46.742;11.636;2023-01-10T15:06:19;0.10;;;0.10;;
2766;SDS011;1391;46.742;11.636;2023-01-10T15:08:54;0.83;;;0.30;;
2766;SDS011;1391;46.742;11.636;2023-01-10T15:11:23;0.30;;;0.30;;
2766;SDS011;1391;46.742;11.636;2023-01-10T15:13:54;0.20;;;0.20;;
2766;SDS011;1391;46.742;11.636;2023-01-10T15:16:27;0.27;;;0.27;;
2766;SDS011;1391;46.742;11.636;2023-01-10T15:18:57;0.43;;;0.43;;
2766;SDS011;1391;46.742;11.636;2023-01-10T15:21:26;0.33;;;0.20;;
2766;SDS011;1391;46.742;11.636;2023-01-10T15:23:54;0.37;;;0.30;;
2766;SDS011;1391;46.742;11.636;2023-01-10T15:26:25;1.90;;;0.27;;
2766;SDS011;1391;46.742;11.636;2023-01-10T15:29:03;1.70;;;0.70;;
2766;SDS011;1391;46.742;11.636;2023-01-10T15:31:37;0.30;;;0.30;;
2766;SDS011;1391;46.742;11.636;2023-01-10T15:34:06;0.33;;;0.33;;
2766;SDS011;1391;46.742;11.636;2023-01-10T15:36:39;0.33;;;0.30;;
2766;SDS011;1391;46.742;11.636;2023-01-10T15:39:17;0.40;;;0.37;;
2766;SDS011;1391;46.742;11.636;2023-01-10T15:41:48;1.23;;;0.60;;
2766;SDS011;1391;46.742;11.636;2023-01-10T15:44:21;0.63;;;0.27;;
2766;SDS011;1391;46.742;11.636;2023-01-10T15:47:04;0.47;;;0.47;;
2766;SDS011;1391;46.742;11.636;2023-01-10T15:49:59;0.20;;;0.17;;
2766;SDS011;1391;46.742;11.636;2023-01-10T15:52:28;0.63;;;0.20;;
2766;SDS011;1391;46.742;11.636;2023-01-10T15:54:55;1.00;;;0.90;;